Time;durP1;ratioP1;P1;durP2;ratioP2;P2;SDS_P1;SDS_P2;PMS_P1;PMS_P2;Temp;Humidity;BMP_temperature;BMP_pressure;BME280_temperature;BME280_humidity;BME280_pressure;Samples;Min_cycle;Max_cycle;Signal;HPM_P1;HPM_P2
2021/03/27 00:01:01;;;;;;;4.05;2.72;;;;;;;9.06;63.71;102333.81;5079066;28;20135;-66
2021/03/27 00:03:35;;;;;;;3.60;2.42;;;;;;;9.07;63.85;102331.25;5097666;28;20051;-66
2021/03/27 00:06:07;;;;;;;6.53;2.50;;;;;;;9.13;63.91;102335.91;5091395;28;22009;-65
2021/03/27 00:08:50;;;;;;;5.07;2.70;;;;;;;9.16;63.66;102336.06;5091933;28;20040;-66
2021/03/27 00:11:21;;;;;;;5.35;3.13;;;;;;;9.15;63.71;102332.53;5089659;28;20036;-65
2021/03/27 00:13:58;;;;;;;5.88;3.17;;;;;;;9.17;63.82;102328.25;5085398;28;20054;-66
2021/03/27 00:16:31;;;;;;;3.90;2.33;;;;;;;9.13;63.68;102328.00;5071667;28;20468;-66
2021/03/27 00:19:04;;;;;;;5.75;2.67;;;;;;;9.05;63.92;102327.69;5094921;28;20440;-65
2021/03/27 00:21:37;;;;;;;4.00;3.03;;;;;;;8.90;64.21;102326.03;5089587;28;20054;-66
2021/03/27 00:24:11;;;;;;;6.75;3.42;;;;;;;8.80;64.52;102325.59;5077362;28;20044;-66
2021/03/27 00:26:43;;;;;;;5.70;3.55;;;;;;;8.74;64.85;102330.56;5071906;28;20044;-66
2021/03/27 00:29:16;;;;;;;3.95;2.88;;;;;;;8.77;64.75;102328.09;5072127;28;20711;-66
2021/03/27 00:31:48;;;;;;;4.90;3.38;;;;;;;8.83;64.55;102319.59;5083367;28;20043;-66
2021/03/27 00:34:18;;;;;;;5.65;2.92;;;;;;;8.89;64.18;102324.22;5101487;28;20498;-66
2021/03/27 00:36:49;;;;;;;4.25;2.88;;;;;;;8.92;64.00;102320.03;5090467;28;20089;-66
2021/03/27 00:39:21;;;;;;;4.22;2.70;;;;;;;8.97;63.71;102314.97;5091142;28;20036;-66
2021/03/27 00:41:55;;;;;;;7.05;3.22;;;;;;;9.00;63.32;102312.47;5091520;28;20036;-66
2021/03/27 00:44:26;;;;;;;4.43;2.65;;;;;;;9.01;62.87;102309.00;5074914;28;20033;-66
2021/03/27 00:46:59;;;;;;;4.90;2.75;;;;;;;9.00;62.63;102301.94;5084048;28;20097;-66
2021/03/27 00:49:30;;;;;;;3.47;2.30;;;;;;;9.00;62.18;102309.81;5070612;28;20071;-66
2021/03/27 00:52:04;;;;;;;3.53;2.40;;;;;;;9.05;61.71;102310.97;5073457;28;20390;-66
2021/03/27 00:54:33;;;;;;;4.93;2.80;;;;;;;9.05;61.37;102310.97;5075873;28;20130;-66
2021/03/27 00:57:05;;;;;;;8.40;3.85;;;;;;;9.07;60.96;102309.28;5069845;28;20511;-65
2021/03/27 00:59:36;;;;;;;6.70;3.35;;;;;;;9.05;60.77;102310.97;5070695;28;20086;-66
2021/03/27 01:02:09;;;;;;;6.10;2.50;;;;;;;9.05;60.49;102308.34;5072066;28;20066;-66
2021/03/27 01:04:37;;;;;;;8.60;4.07;;;;;;;9.05;60.17;102308.34;5084002;28;20485;-66
2021/03/27 01:07:09;;;;;;;7.68;3.10;;;;;;;9.02;60.24;102303.81;5089320;28;20032;-66
2021/03/27 01:09:42;;;;;;;6.18;2.88;;;;;;;9.02;59.78;102305.53;5080688;28;20041;-66
2021/03/27 01:12:13;;;;;;;5.40;2.83;;;;;;;8.99;59.85;102306.28;5080867;28;20457;-66
2021/03/27 01:14:44;;;;;;;6.40;3.10;;;;;;;8.97;59.62;102302.72;5070669;28;20280;-66
2021/03/27 01:17:16;;;;;;;6.43;3.45;;;;;;;8.94;59.44;102299.91;5074808;28;20154;-66
2021/03/27 01:19:46;;;;;;;6.10;3.20;;;;;;;8.93;59.33;102299.84;5082951;28;20608;-66
2021/03/27 01:22:15;;;;;;;14.23;6.35;;;;;;;8.89;59.24;102301.44;5071582;28;20051;-66
2021/03/27 01:24:43;;;;;;;5.97;3.35;;;;;;;8.87;59.25;102304.81;5088707;28;20051;-66
2021/03/27 01:27:20;;;;;;;3.35;2.30;;;;;;;8.80;59.70;102301.00;5088895;28;20040;-65
2021/03/27 01:29:56;;;;;;;5.35;3.13;;;;;;;8.72;60.22;102305.91;5071630;28;20175;-66
2021/03/27 01:32:30;;;;;;;4.57;2.90;;;;;;;8.66;60.10;102308.22;5070308;28;20051;-66
2021/03/27 01:35:04;;;;;;;4.63;2.70;;;;;;;8.62;60.50;102308.91;5098164;28;20135;-66
2021/03/27 01:37:44;;;;;;;2.95;2.28;;;;;;;8.59;60.67;102311.44;5090431;28;20128;-65
2021/03/27 01:40:26;;;;;;;4.60;2.50;;;;;;;8.55;60.96;102305.91;5087113;28;20135;-66
2021/03/27 01:43:17;;;;;;;4.45;2.67;;;;;;;8.53;61.05;102305.88;5087581;28;20132;-65
2021/03/27 01:46:10;;;;;;;4.30;2.50;;;;;;;8.55;60.69;102305.91;5108962;28;20514;-65
2021/03/27 01:48:49;;;;;;;4.53;2.80;;;;;;;8.54;60.74;102305.00;5110326;28;20104;-66
2021/03/27 01:51:27;;;;;;;4.18;2.45;;;;;;;8.53;60.78;102308.50;5097592;28;20040;-66
2021/03/27 01:53:59;;;;;;;4.57;2.28;;;;;;;8.50;60.88;102313.59;5071102;28;20559;-66
2021/03/27 01:56:38;;;;;;;5.32;2.88;;;;;;;8.42;61.37;102314.94;5087057;28;20036;-66
2021/03/27 01:59:09;;;;;;;4.35;2.50;;;;;;;8.33;61.76;102319.78;5068386;28;20048;-66
2021/03/27 02:01:42;;;;;;;4.95;2.95;;;;;;;8.27;61.79;102317.69;5070483;28;20036;-65
2021/03/27 02:04:17;;;;;;;4.57;2.70;;;;;;;8.25;61.92;102315.81;5089288;28;20036;-66
2021/03/27 02:06:55;;;;;;;4.05;2.33;;;;;;;8.22;62.11;102318.28;5089032;28;20123;-65
2021/03/27 02:09:33;;;;;;;5.43;2.72;;;;;;;8.19;62.08;102313.78;5072792;28;20114;-66
2021/03/27 02:12:13;;;;;;;4.40;2.75;;;;;;;8.17;62.29;102322.41;5079604;28;20040;-65
2021/03/27 02:14:49;;;;;;;6.88;2.97;;;;;;;8.11;62.57;102319.47;5083881;28;20055;-65
2021/03/27 02:17:20;;;;;;;3.88;2.28;;;;;;;8.08;62.70;102320.22;5078555;28;20044;-66
2021/03/27 02:20:22;;;;;;;5.63;2.78;;;;;;;8.05;62.82;102322.69;5089779;28;20036;-66
2021/03/27 02:23:01;;;;;;;4.95;2.78;;;;;;;8.02;62.98;102318.19;5076737;28;20422;-65
2021/03/27 02:26:01;;;;;;;4.45;2.47;;;;;;;8.05;62.88;102327.06;5106530;28;20040;-66
2021/03/27 02:28:56;;;;;;;5.13;3.22;;;;;;;8.03;62.95;102319.09;5088484;28;20100;-65
2021/03/27 02:31:32;;;;;;;5.65;3.55;;;;;;;7.97;63.03;102321.41;5084365;28;20036;-65
2021/03/27 02:34:04;;;;;;;3.08;2.05;;;;;;;7.91;63.11;102327.25;5099492;28;20473;-66
2021/03/27 02:36:44;;;;;;;6.63;2.88;;;;;;;7.87;63.19;102333.19;5079454;28;20530;-65
2021/03/27 02:39:22;;;;;;;5.85;2.47;;;;;;;7.78;63.72;102335.34;5073740;28;20133;-66
2021/03/27 02:42:01;;;;;;;3.95;2.25;;;;;;;7.73;63.98;102334.19;5095866;28;20078;-66
2021/03/27 02:44:34;;;;;;;3.30;2.22;;;;;;;7.68;64.40;102342.66;5074275;28;20116;-66
2021/03/27 02:47:28;;;;;;;7.05;2.63;;;;;;;7.68;64.52;102346.16;5073653;28;20044;-66
2021/03/27 02:50:03;;;;;;;4.38;2.58;;;;;;;7.67;64.60;102352.28;5087644;28;20048;-65
2021/03/27 02:52:35;;;;;;;3.30;1.80;;;;;;;7.71;64.45;102346.34;5090338;28;20042;-66
2021/03/27 02:55:19;;;;;;;3.35;2.22;;;;;;;7.78;64.37;102352.81;5090905;28;20061;-66
2021/03/27 02:57:56;;;;;;;4.57;2.10;;;;;;;7.86;64.29;102352.41;5073085;28;20056;-66
2021/03/27 03:00:31;;;;;;;4.85;2.50;;;;;;;7.89;64.43;102349.03;5071642;28;20036;-65
2021/03/27 03:03:05;;;;;;;2.88;2.10;;;;;;;7.93;64.39;102343.13;5073623;28;20043;-66
2021/03/27 03:05:39;;;;;;;3.95;2.17;;;;;;;7.99;64.13;102349.59;5075671;28;20033;-66
2021/03/27 03:08:18;;;;;;;3.83;2.30;;;;;;;8.07;63.94;102346.47;5072738;28;20450;-66
2021/03/27 03:10:55;;;;;;;3.92;2.40;;;;;;;8.12;63.96;102347.59;5074274;28;20055;-65
2021/03/27 03:13:28;;;;;;;3.78;2.05;;;;;;;8.15;63.88;102350.34;5075538;28;20124;-65
2021/03/27 03:15:59;;;;;;;5.93;2.42;;;;;;;8.15;63.94;102347.72;5089856;28;20060;-65
2021/03/27 03:18:38;;;;;;;5.38;2.35;;;;;;;8.13;64.07;102344.13;5072568;28;20059;-66
2021/03/27 03:21:11;;;;;;;5.20;2.65;;;;;;;8.09;64.09;102347.41;5073098;28;20033;-65
2021/03/27 03:23:48;;;;;;;4.72;2.40;;;;;;;8.05;64.43;102342.84;5072479;28;20074;-66
2021/03/27 03:26:29;;;;;;;4.22;2.55;;;;;;;7.94;64.84;102344.94;5073414;28;20037;-66
2021/03/27 03:29:08;;;;;;;4.40;2.53;;;;;;;7.87;65.04;102353.31;5094732;28;20041;-65
2021/03/27 03:31:49;;;;;;;3.70;2.38;;;;;;;7.77;65.28;102359.81;5088619;28;20032;-66
2021/03/27 03:34:36;;;;;;;4.47;2.42;;;;;;;7.69;65.74;102360.22;5091541;28;20094;-66
2021/03/27 03:37:10;;;;;;;3.65;2.28;;;;;;;7.58;66.02;102363.19;5090763;28;20052;-65
2021/03/27 03:39:50;;;;;;;4.05;2.35;;;;;;;7.56;66.41;102361.28;5092168;28;20055;-65
2021/03/27 03:42:51;;;;;;;3.38;2.08;;;;;;;7.66;66.41;102365.31;5079366;28;20115;-66
2021/03/27 03:45:36;;;;;;;3.25;2.20;;;;;;;7.71;66.34;102367.38;5092985;28;20040;-65
2021/03/27 03:48:12;;;;;;;3.92;2.30;;;;;;;7.76;66.18;102373.75;5092238;28;20484;-65
2021/03/27 03:50:46;;;;;;;4.78;2.80;;;;;;;7.75;66.11;102371.06;5088977;28;20044;-65
2021/03/27 03:53:32;;;;;;;4.78;2.25;;;;;;;7.70;66.10;102376.06;5101977;27;20032;-66
2021/03/27 03:56:24;;;;;;;5.95;2.63;;;;;;;7.65;66.37;102382.81;5086344;28;20041;-66
2021/03/27 03:58:59;;;;;;;4.38;2.85;;;;;;;7.63;66.33;102383.53;5069482;28;20032;-65
2021/03/27 04:01:47;;;;;;;5.70;2.28;;;;;;;7.60;66.25;102386.94;5072998;28;20044;-66
2021/03/27 04:04:20;;;;;;;3.95;2.35;;;;;;;7.52;66.34;102381.25;5080873;28;20032;-65
2021/03/27 04:06:54;;;;;;;3.92;2.35;;;;;;;7.44;66.65;102382.56;5087361;28;20032;-65
2021/03/27 04:09:26;;;;;;;4.20;2.75;;;;;;;7.37;66.85;102377.78;5071354;28;20079;-65
2021/03/27 04:12:06;;;;;;;4.32;2.42;;;;;;;7.34;66.80;102389.88;5073692;28;20123;-65
2021/03/27 04:15:00;;;;;;;3.85;2.55;;;;;;;7.35;66.90;102389.94;5061860;28;20124;-65
2021/03/27 04:17:37;;;;;;;4.50;2.83;;;;;;;7.40;66.92;102398.09;5061499;28;20049;-65
2021/03/27 04:20:13;;;;;;;4.18;2.55;;;;;;;7.38;66.84;102398.00;5080419;28;20044;-66
2021/03/27 04:22:46;;;;;;;5.07;2.78;;;;;;;7.36;66.83;102398.72;5091538;28;20052;-65
2021/03/27 04:25:31;;;;;;;3.90;2.50;;;;;;;7.35;67.03;102408.31;5089508;28;20052;-66
2021/03/27 04:28:05;;;;;;;5.30;2.85;;;;;;;7.33;67.00;102406.44;5091431;28;20126;-65
2021/03/27 04:30:40;;;;;;;4.70;2.45;;;;;;;7.32;67.14;102408.16;5072500;28;20123;-65
2021/03/27 04:33:14;;;;;;;4.63;2.50;;;;;;;7.35;67.19;102407.44;5074591;28;20119;-66
2021/03/27 04:35:58;;;;;;;4.43;2.75;;;;;;;7.42;67.22;102407.84;5074758;28;20084;-65
2021/03/27 04:38:35;;;;;;;5.45;2.47;;;;;;;7.56;67.32;102406.88;5091341;28;20068;-66
2021/03/27 04:41:12;;;;;;;3.58;2.65;;;;;;;7.70;67.36;102415.50;5076048;28;20035;-66
2021/03/27 04:43:45;;;;;;;3.78;2.25;;;;;;;7.83;67.48;102417.97;5070848;28;20050;-65
2021/03/27 04:46:17;;;;;;;4.05;2.20;;;;;;;7.92;67.45;102414.94;5072527;28;20032;-66
2021/03/27 04:48:51;;;;;;;5.20;2.55;;;;;;;8.04;67.26;102417.28;5081263;28;20044;-65
2021/03/27 04:51:42;;;;;;;4.47;2.72;;;;;;;8.21;67.37;102413.78;5071718;28;20044;-66
2021/03/27 04:54:32;;;;;;;6.07;2.88;;;;;;;8.28;67.30;102415.91;5070514;28;20067;-66
2021/03/27 04:57:13;;;;;;;4.07;2.10;;;;;;;8.31;67.12;102421.38;5074380;28;20039;-65
2021/03/27 05:00:16;;;;;;;4.43;2.55;;;;;;;8.52;67.38;102414.59;5070930;28;20131;-65
2021/03/27 05:02:48;;;;;;;3.50;2.50;;;;;;;8.69;67.24;102425.94;5075084;28;20048;-65
2021/03/27 05:05:23;;;;;;;5.50;2.38;;;;;;;8.87;67.32;102416.31;5090195;28;20157;-66
2021/03/27 05:07:59;;;;;;;5.22;2.60;;;;;;;9.06;67.21;102419.03;5080153;28;20181;-66
2021/03/27 05:10:37;;;;;;;4.10;1.92;;;;;;;9.23;66.69;102419.84;5084112;28;20048;-66
2021/03/27 05:13:23;;;;;;;3.30;1.92;;;;;;;9.45;66.42;102425.28;5090224;28;20042;-66
2021/03/27 05:15:53;;;;;;;3.15;2.10;;;;;;;9.69;66.73;102419.34;5084933;28;20404;-66
2021/03/27 05:18:49;;;;;;;3.85;2.17;;;;;;;9.93;65.86;102424.00;5075362;28;20055;-66
2021/03/27 05:21:37;;;;;;;4.95;2.00;;;;;;;10.15;65.55;102425.84;5070049;28;20062;-66
2021/03/27 05:24:17;;;;;;;5.57;1.88;;;;;;;10.39;65.46;102429.59;5071646;28;20043;-66
2021/03/27 05:26:55;;;;;;;4.18;2.17;;;;;;;10.68;65.08;102425.56;5070462;28;20115;-66
2021/03/27 05:29:43;;;;;;;4.13;2.13;;;;;;;10.68;64.31;102422.00;5071451;28;20089;-66
2021/03/27 05:32:47;;;;;;;5.15;2.45;;;;;;;10.57;63.41;102421.53;5069990;28;20040;-66
2021/03/27 05:35:25;;;;;;;5.55;2.65;;;;;;;10.55;62.24;102424.97;5052334;28;20040;-66
2021/03/27 05:38:08;;;;;;;5.82;2.70;;;;;;;10.86;62.09;102430.69;5090070;28;20108;-66
2021/03/27 05:41:16;;;;;;;3.88;2.63;;;;;;;11.44;60.56;102433.00;5090064;28;20036;-66
2021/03/27 05:44:07;;;;;;;7.50;3.63;;;;;;;11.99;57.97;102436.03;5066140;28;20392;-67
2021/03/27 05:47:12;;;;;;;8.32;3.67;;;;;;;12.37;57.00;102429.47;5089981;28;20050;-66
2021/03/27 05:49:54;;;;;;;;;;;;;;;12.54;55.94;102428.28;5078641;28;20041;-66
2021/03/27 05:52:45;;;;;;;4.25;2.30;;;;;;;12.34;56.12;102439.94;5038145;28;19920;-66
2021/03/27 05:55:56;;;;;;;4.00;3.05;;;;;;;12.00;55.78;102432.56;5075828;28;20036;-66
2021/03/27 05:58:46;;;;;;;4.88;3.20;;;;;;;12.14;55.52;102433.06;5070202;28;20035;-66
2021/03/27 06:01:38;;;;;;;11.23;7.60;;;;;;;12.56;54.85;102431.91;5087793;28;20392;-67
2021/03/27 06:04:18;;;;;;;5.93;3.25;;;;;;;13.04;53.07;102429.09;5075280;28;20033;-66
2021/03/27 06:07:26;;;;;;;8.00;4.90;;;;;;;13.45;51.71;102417.16;5069719;28;20394;-66
2021/03/27 06:10:20;;;;;;;4.30;3.40;;;;;;;13.91;50.84;102435.34;5076055;28;20045;-67
2021/03/27 06:13:11;;;;;;;5.05;2.65;;;;;;;14.15;50.10;102433.38;5069636;28;20051;-67
2021/03/27 06:16:11;;;;;;;11.68;7.25;;;;;;;14.51;49.14;102427.28;5073819;28;20512;-66
2021/03/27 06:19:03;;;;;;;5.20;3.80;;;;;;;14.56;47.90;102438.94;5073347;28;20044;-66
2021/03/27 06:21:40;;;;;;;6.35;4.95;;;;;;;14.84;46.47;102430.81;5088254;28;20492;-66
2021/03/27 06:24:17;;;;;;;6.18;2.30;;;;;;;15.22;45.51;102444.16;5079197;28;20050;-67
2021/03/27 06:27:07;;;;;;;6.05;2.88;;;;;;;15.24;45.44;102453.03;5070659;28;20060;-66
2021/03/27 06:30:16;;;;;;;7.60;4.55;;;;;;;15.03;46.64;102456.13;5069409;28;20409;-66
2021/03/27 06:33:14;;;;;;;5.25;3.10;;;;;;;14.81;46.68;102453.78;5069145;28;20037;-66
2021/03/27 06:36:13;;;;;;;9.35;6.82;;;;;;;14.66;47.28;102463.16;5070231;28;20037;-66
2021/03/27 06:39:16;;;;;;;10.27;5.05;;;;;;;14.57;47.39;102462.88;5043737;28;20177;-67
2021/03/27 06:42:06;;;;;;;11.63;7.80;;;;;;;14.50;47.76;102463.63;5076578;28;20127;-66
2021/03/27 06:44:53;;;;;;;10.82;5.75;;;;;;;14.35;48.06;102465.81;5079164;28;20046;-66
2021/03/27 06:48:05;;;;;;;9.02;5.80;;;;;;;14.30;48.50;102463.03;5083341;28;20060;-66
2021/03/27 06:50:51;;;;;;;7.63;4.07;;;;;;;14.39;48.32;102474.78;5087780;28;20115;-66
2021/03/27 06:53:31;;;;;;;7.15;3.80;;;;;;;14.50;47.93;102482.22;5073706;28;20598;-66
2021/03/27 06:56:33;;;;;;;9.23;4.18;;;;;;;14.63;47.71;102479.03;5076497;28;20100;-66
2021/03/27 06:59:32;;;;;;;7.43;3.83;;;;;;;14.83;47.96;102486.63;5079799;28;20043;-66
2021/03/27 07:02:27;;;;;;;5.88;3.60;;;;;;;14.84;46.74;102493.72;5087347;28;20131;-68
2021/03/27 07:05:18;;;;;;;;;;;;;;;14.68;46.41;102495.09;5088675;28;20040;-67
2021/03/27 07:08:05;;;;;;;7.70;3.90;;;;;;;14.60;47.43;102493.97;5085076;28;19926;-68
2021/03/27 07:11:09;;;;;;;7.57;3.90;;;;;;;14.60;47.87;102497.53;5092415;28;20119;-68
2021/03/27 07:14:15;;;;;;;8.32;5.38;;;;;;;14.65;47.84;102502.97;5090019;28;20048;-67
2021/03/27 07:16:52;;;;;;;;;;;;;;;15.37;47.23;102497.72;5088534;28;20207;-67
2021/03/27 07:19:57;;;;;;;6.57;3.38;;;;;;;16.58;45.92;102504.81;5084401;28;19973;-67
2021/03/27 07:23:03;;;;;;;5.57;3.17;;;;;;;16.93;45.04;102497.50;5084951;28;20032;-67
2021/03/27 07:25:44;;;;;;;;;;;;;;;16.64;44.85;102492.53;5069188;28;20400;-67
2021/03/27 07:28:53;;;;;;;4.97;3.00;;;;;;;16.16;44.99;102508.41;5089141;28;19933;-67
2021/03/27 07:31:45;;;;;;;5.53;3.13;;;;;;;15.91;45.48;102515.00;5090988;28;20086;-67
2021/03/27 07:34:36;;;;;;;4.40;2.40;;;;;;;15.85;45.58;102514.88;5089748;28;20043;-68
2021/03/27 07:37:43;;;;;;;6.32;3.40;;;;;;;15.78;45.64;102504.03;5079996;28;20040;-67
2021/03/27 07:40:34;;;;;;;5.78;3.53;;;;;;;15.68;45.92;102510.94;5078746;28;20040;-68
2021/03/27 07:43:51;;;;;;;6.78;3.88;;;;;;;15.72;46.43;102512.78;5087169;28;20480;-67
2021/03/27 07:46:51;;;;;;;7.25;4.20;;;;;;;15.69;46.45;102515.38;5088434;28;20040;-67
2021/03/27 07:49:36;;;;;;;4.57;2.67;;;;;;;15.59;46.67;102516.03;5071487;28;20048;-67
2021/03/27 07:52:31;;;;;;;6.13;3.08;;;;;;;16.04;46.05;102510.81;5079435;28;20489;-66
2021/03/27 07:55:28;;;;;;;;;;;;;;;16.57;45.47;102514.59;5087355;28;20496;-67
2021/03/27 07:58:04;;;;;;;17.08;11.07;;;;;;;17.03;45.81;102521.69;5008004;28;19928;-67
2021/03/27 08:00:52;;;;;;;9.00;5.15;;;;;;;17.41;45.49;102516.97;5058588;28;20083;-67
2021/03/27 08:03:58;;;;;;;9.90;5.43;;;;;;;17.42;44.89;102516.09;5059794;28;20041;-67
2021/03/27 08:06:46;;;;;;;11.38;5.55;;;;;;;16.90;45.98;102518.78;5089605;28;20124;-68
2021/03/27 08:09:23;;;;;;;10.73;5.65;;;;;;;16.59;46.45;102525.28;5079466;28;20503;-67
2021/03/27 08:12:29;;;;;;;10.43;5.78;;;;;;;17.14;45.68;102530.78;5080703;28;20066;-67
2021/03/27 08:15:17;;;;;;;5.00;2.75;;;;;;;17.74;44.22;102529.97;5057078;28;20052;-67
2021/03/27 08:18:06;;;;;;;5.13;3.17;;;;;;;18.01;43.55;102529.47;5073696;28;20139;-67
2021/03/27 08:20:43;;;;;;;6.65;4.10;;;;;;;18.77;43.03;102525.06;5075970;28;20052;-67
2021/03/27 08:23:30;;;;;;;20.33;11.10;;;;;;;19.04;42.31;102532.44;5080962;28;20050;-68
2021/03/27 08:26:22;;;;;;;6.82;4.05;;;;;;;18.78;42.28;102532.19;5071839;28;20037;-68
2021/03/27 08:29:29;;;;;;;5.60;3.67;;;;;;;18.01;42.98;102532.13;5037550;28;20138;-67
2021/03/27 08:32:19;;;;;;;8.75;4.25;;;;;;;17.84;43.67;102531.03;5050906;28;20063;-67
2021/03/27 08:35:13;;;;;;;4.57;2.85;;;;;;;18.31;42.98;102523.63;5070323;28;20051;-67
2021/03/27 08:38:17;;;;;;;7.35;3.80;;;;;;;18.57;42.18;102527.53;5075969;28;20040;-67
2021/03/27 08:41:08;;;;;;;16.17;8.63;;;;;;;18.69;42.17;102537.47;5061198;28;20048;-67
2021/03/27 08:44:04;;;;;;;5.57;2.53;;;;;;;19.08;41.83;102527.16;5069157;28;20037;-68
2021/03/27 08:47:03;;;;;;;168.38;116.72;;;;;;;19.49;40.68;102521.28;5061568;28;20070;-68
2021/03/27 08:50:09;;;;;;;111.40;89.15;;;;;;;19.96;40.42;102526.00;5072732;28;20037;-68
2021/03/27 08:53:10;;;;;;;10.60;3.53;;;;;;;20.20;38.98;102524.34;5075483;28;20048;-68
2021/03/27 08:55:50;;;;;;;4.85;2.90;;;;;;;19.41;38.68;102523.84;5041306;28;20406;-68
2021/03/27 08:58:41;;;;;;;5.72;2.60;;;;;;;19.50;38.94;102523.94;5071974;28;20040;-68
2021/03/27 09:01:37;;;;;;;4.90;2.65;;;;;;;19.24;38.20;102522.81;5077510;28;20029;-68
2021/03/27 09:04:36;;;;;;;7.28;4.78;;;;;;;18.71;38.82;102531.22;5084311;28;20511;-68
2021/03/27 09:07:32;;;;;;;6.10;3.65;;;;;;;19.26;38.53;102533.53;5081236;28;20378;-68
2021/03/27 09:10:21;;;;;;;14.40;12.02;;;;;;;19.02;38.75;102531.56;5074460;28;20043;-68
2021/03/27 09:13:08;;;;;;;11.02;6.38;;;;;;;18.55;38.74;102528.34;5076754;28;20040;-67
2021/03/27 09:15:56;;;;;;;10.55;8.18;;;;;;;18.53;38.90;102524.75;5077750;28;20067;-67
2021/03/27 09:19:07;;;;;;;16.05;10.80;;;;;;;18.88;39.71;102542.13;5073444;28;20062;-67
2021/03/27 09:21:44;;;;;;;9.80;7.13;;;;;;;19.02;39.45;102537.81;5024821;28;20048;-68
2021/03/27 09:24:23;;;;;;;10.13;7.28;;;;;;;19.30;38.74;102530.00;5074544;28;20512;-67
2021/03/27 09:27:11;;;;;;;14.40;10.52;;;;;;;19.66;38.92;102535.66;5075063;28;20036;-68
2021/03/27 09:30:08;;;;;;;11.45;6.60;;;;;;;19.97;38.47;102538.53;5067137;28;20052;-68
2021/03/27 09:32:55;;;;;;;9.82;6.82;;;;;;;20.22;37.85;102527.91;5069106;28;20527;-68
2021/03/27 09:35:32;;;;;;;5.50;3.03;;;;;;;20.35;37.23;102523.53;5072643;28;20044;-68
2021/03/27 09:38:20;;;;;;;11.02;7.93;;;;;;;20.55;37.19;102527.19;5074093;28;20658;-68
2021/03/27 09:41:04;;;;;;;6.18;3.47;;;;;;;20.66;36.84;102525.44;5074271;28;20043;-68
2021/03/27 09:44:01;;;;;;;;;;;;;;;20.55;37.51;102521.81;5078721;28;20568;-68
2021/03/27 09:46:38;;;;;;;3.80;2.20;;;;;;;20.68;36.83;102529.00;5009644;28;19944;-69
2021/03/27 09:49:19;;;;;;;10.00;4.85;;;;;;;20.95;36.90;102525.47;5047047;28;20048;-68
2021/03/27 09:52:20;;;;;;;4.95;2.45;;;;;;;21.15;35.87;102520.09;5049243;28;20053;-69
2021/03/27 09:54:50;;;;;;;5.15;2.53;;;;;;;21.00;36.64;102526.34;5051711;28;20139;-68
2021/03/27 09:57:26;;;;;;;3.85;2.33;;;;;;;20.77;37.03;102528.13;5060471;28;20045;-69
2021/03/27 10:00:12;;;;;;;10.75;5.00;;;;;;;20.54;37.09;102527.19;5061271;28;20612;-68
2021/03/27 10:02:47;;;;;;;10.82;6.57;;;;;;;20.19;37.16;102527.03;5063918;28;20574;-68
2021/03/27 10:05:33;;;;;;;13.18;8.13;;;;;;;20.19;37.37;102533.28;5067845;28;20371;-68
2021/03/27 10:08:13;;;;;;;7.28;3.55;;;;;;;20.21;37.45;102527.94;5066001;28;20045;-67
2021/03/27 10:11:05;;;;;;;25.48;19.80;;;;;;;20.35;36.90;102528.03;5038485;28;20436;-68
2021/03/27 10:13:57;;;;;;;6.10;3.58;;;;;;;20.24;37.40;102527.94;5035994;28;20042;-68
2021/03/27 10:16:32;;;;;;;7.70;4.28;;;;;;;20.20;36.99;102526.13;5059265;28;20055;-68
2021/03/27 10:19:09;;;;;;;6.38;3.78;;;;;;;19.95;37.42;102518.88;5063413;28;20061;-68
2021/03/27 10:21:48;;;;;;;12.80;9.43;;;;;;;19.90;37.63;102525.09;5061309;28;20052;-68
2021/03/27 10:24:29;;;;;;;4.75;2.83;;;;;;;19.89;37.41;102509.88;5055173;28;20045;-68
2021/03/27 10:27:04;;;;;;;4.22;2.40;;;;;;;19.76;37.09;102513.38;5057855;28;20409;-67
2021/03/27 10:29:40;;;;;;;8.23;3.92;;;;;;;19.53;37.35;102515.03;5058342;28;20561;-67
2021/03/27 10:32:52;;;;;;;8.07;4.07;;;;;;;19.57;38.23;102506.13;5062130;28;20153;-67
2021/03/27 10:35:41;;;;;;;4.32;2.78;;;;;;;20.11;37.47;102501.94;5026355;28;20067;-68
2021/03/27 10:38:26;;;;;;;6.15;2.97;;;;;;;20.51;37.16;102503.03;5065794;28;20041;-68
2021/03/27 10:40:59;;;;;;;10.10;3.22;;;;;;;20.78;37.02;102502.19;5049332;28;20032;-67
2021/03/27 10:43:34;;;;;;;6.50;3.10;;;;;;;20.88;36.90;102501.28;5067733;28;20493;-68
2021/03/27 10:46:11;;;;;;;13.68;7.10;;;;;;;20.81;37.07;102504.84;5046215;28;20510;-68
2021/03/27 10:49:11;;;;;;;9.38;4.47;;;;;;;20.84;36.33;102505.78;5065063;28;20060;-67
2021/03/27 10:52:30;;;;;;;13.57;7.00;;;;;;;20.90;36.97;102497.72;5066370;28;20045;-67
2021/03/27 10:55:30;;;;;;;3.60;2.33;;;;;;;20.94;36.67;102491.44;5052425;28;20036;-67
2021/03/27 10:58:33;;;;;;;3.90;2.53;;;;;;;20.74;37.01;102497.72;5061448;28;20045;-67
2021/03/27 11:01:23;;;;;;;4.45;3.00;;;;;;;20.59;37.67;102490.53;5071703;28;20043;-67
2021/03/27 11:04:10;;;;;;;5.25;2.30;;;;;;;20.75;37.51;102496.78;5069501;28;20037;-67
2021/03/27 11:07:26;;;;;;;5.30;2.33;;;;;;;20.94;36.99;102501.28;5071930;28;20049;-67
2021/03/27 11:10:35;;;;;;;5.68;2.70;;;;;;;20.75;37.28;102500.38;5064005;28;20497;-67
2021/03/27 11:13:39;;;;;;;5.15;2.30;;;;;;;20.57;37.39;102495.88;5059540;28;20036;-67
2021/03/27 11:16:39;;;;;;;4.28;2.47;;;;;;;20.40;37.30;102486.00;5052452;28;20045;-67
2021/03/27 11:19:41;;;;;;;5.50;2.92;;;;;;;20.37;37.91;102486.88;5060650;28;20581;-67
2021/03/27 11:22:30;;;;;;;5.80;1.92;;;;;;;20.21;37.64;102490.38;5045196;28;20072;-67
2021/03/27 11:25:23;;;;;;;2.88;2.05;;;;;;;20.01;37.80;102492.09;5042897;28;20052;-67
2021/03/27 11:28:01;;;;;;;3.05;1.92;;;;;;;19.78;37.92;102487.50;5049197;28;20112;-67
2021/03/27 11:30:38;;;;;;;4.38;2.60;;;;;;;19.80;38.30;102485.72;5047629;28;20045;-67
2021/03/27 11:33:24;;;;;;;3.97;2.58;;;;;;;19.93;38.79;102489.38;5050000;28;20044;-67
2021/03/27 11:35:57;;;;;;;3.47;2.33;;;;;;;19.81;38.81;102489.31;5051082;28;20097;-67
2021/03/27 11:38:32;;;;;;;3.33;2.28;;;;;;;20.10;38.57;102482.28;5043795;28;20454;-67
2021/03/27 11:41:05;;;;;;;4.65;2.88;;;;;;;20.35;38.13;102477.91;5043487;28;20041;-67
2021/03/27 11:43:41;;;;;;;4.20;2.50;;;;;;;20.39;38.13;102469.00;5041979;28;20065;-67
2021/03/27 11:46:13;;;;;;;4.93;2.42;;;;;;;20.33;38.27;102466.31;5046513;28;20492;-67
2021/03/27 11:48:48;;;;;;;4.82;2.60;;;;;;;20.21;38.37;102467.16;5059558;28;20544;-68
2021/03/27 11:51:22;;;;;;;4.00;2.33;;;;;;;20.05;38.67;102456.34;5078410;28;20064;-68
2021/03/27 11:53:58;;;;;;;4.18;2.55;;;;;;;19.87;39.23;102466.09;5075926;28;20427;-67
2021/03/27 11:56:37;;;;;;;4.45;2.70;;;;;;;19.67;39.71;102464.22;5070317;28;20118;-67
2021/03/27 12:02:24;;;;;;;4.82;2.85;;;;;;;19.74;40.46;102455.31;5079613;28;21276;-68
2021/03/27 12:05:12;;;;;;;3.65;2.70;;;;;;;20.01;40.06;102455.44;5075930;28;20213;-68
2021/03/27 12:07:50;;;;;;;4.13;2.30;;;;;;;20.09;40.06;102455.44;5089887;28;20048;-68
2021/03/27 12:10:36;;;;;;;3.97;2.08;;;;;;;20.02;39.60;102449.16;5074693;28;20275;-68
2021/03/27 12:13:10;;;;;;;4.07;2.30;;;;;;;19.80;39.88;102453.56;5078842;28;20032;-67
2021/03/27 12:15:42;;;;;;;;;;;;;;;19.66;39.99;102447.22;5080178;28;20044;-68
2021/03/27 12:18:24;;;;;;;4.15;2.10;;;;;;;19.73;40.10;102448.16;5077543;28;19943;-68
2021/03/27 12:21:04;;;;;;;3.90;2.10;;;;;;;19.59;40.13;102450.75;5074041;28;20040;-67
2021/03/27 12:23:37;;;;;;;5.20;2.55;;;;;;;19.61;40.26;102450.78;5074539;28;20043;-68
2021/03/27 12:26:15;;;;;;;5.15;3.15;;;;;;;19.58;40.85;102446.28;5074899;28;20043;-67
2021/03/27 12:28:49;;;;;;;3.97;2.50;;;;;;;19.69;41.42;102441.00;5077907;28;20401;-67
2021/03/27 12:31:40;;;;;;;5.05;2.80;;;;;;;19.68;41.88;102437.44;5073297;28;20435;-67
2021/03/27 12:34:17;;;;;;;7.03;4.05;;;;;;;19.96;41.79;102437.53;5072207;28;20480;-67
2021/03/27 12:36:55;;;;;;;5.75;3.22;;;;;;;19.55;41.90;102434.66;5071649;28;20039;-67
2021/03/27 12:39:29;;;;;;;4.32;2.50;;;;;;;19.07;42.23;102431.66;5078102;28;20032;-68
2021/03/27 12:42:11;;;;;;;4.93;3.03;;;;;;;18.79;43.08;102431.41;5088367;28;20073;-67
2021/03/27 12:44:44;;;;;;;4.22;2.60;;;;;;;18.55;43.18;102434.72;5082273;28;20045;-66
2021/03/27 12:47:29;;;;;;;6.35;3.22;;;;;;;18.50;43.40;102425.78;5076232;28;20039;-68
2021/03/27 12:50:15;;;;;;;;;;;;;;;18.44;43.23;102429.28;5077733;28;20052;-67